Port Sanilac, Michigan
Current Conditions -  °F | °C
As of 3:00 PM on Wednesday 28 Jan 2015 (Local Time) from CYZR Reporting Station
Clear Clear  
Wind Chill: 17°   Ceiling: Unl
Heat Index: 27°   Visibility: 9mi
Dew Point: 12°   Wind: 10mph
Humidity: 55%   Direction: 170°S
Pressure: 30.28"   Gusts: NA
Location:  43.43°N, 82.54°W
Report Text: CYZR 282000Z AUTO 17009KT 9SM CLR M03/M11 A3028 RMK SLP266
Loading
Personal Weather Stations






























Interactive Weather Map New forecast layout! Learn more

10-Day Weather Forecast

Advertisements
Track Severe Weather on mobile